sensor_id;sensor_type;location;lat;lon;timestamp;P1;durP1;ratioP1;P2;durP2;ratioP2
71637;SDS011;59485;43.542;-5.676;2023-04-03T00:01:54;11.85;;;1.38;;
71637;SDS011;59485;43.542;-5.676;2023-04-03T00:04:19;11.73;;;1.70;;
71637;SDS011;59485;43.542;-5.676;2023-04-03T00:06:45;10.60;;;1.00;;
71637;SDS011;59485;43.542;-5.676;2023-04-03T00:09:10;9.65;;;0.90;;
71637;SDS011;59485;43.542;-5.676;2023-04-03T00:11:36;10.37;;;0.63;;
71637;SDS011;59485;43.542;-5.676;2023-04-03T00:14:02;10.53;;;1.20;;
71637;SDS011;59485;43.542;-5.676;2023-04-03T00:16:27;12.50;;;1.33;;
71637;SDS011;59485;43.542;-5.676;2023-04-03T00:18:53;12.98;;;0.70;;
71637;SDS011;59485;43.542;-5.676;2023-04-03T00:21:19;18.73;;;2.50;;
71637;SDS011;59485;43.542;-5.676;2023-04-03T00:23:44;5.77;;;0.90;;
71637;SDS011;59485;43.542;-5.676;2023-04-03T00:26:10;8.18;;;0.88;;
71637;SDS011;59485;43.542;-5.676;2023-04-03T00:28:36;13.77;;;1.20;;
71637;SDS011;59485;43.542;-5.676;2023-04-03T00:31:01;10.48;;;1.08;;
71637;SDS011;59485;43.542;-5.676;2023-04-03T00:33:27;10.30;;;1.37;;
71637;SDS011;59485;43.542;-5.676;2023-04-03T00:35:53;13.25;;;1.27;;
71637;SDS011;59485;43.542;-5.676;2023-04-03T00:38:18;8.83;;;0.70;;
71637;SDS011;59485;43.542;-5.676;2023-04-03T00:40:45;13.57;;;1.20;;
71637;SDS011;59485;43.542;-5.676;2023-04-03T00:43:13;11.18;;;1.20;;
71637;SDS011;59485;43.542;-5.676;2023-04-03T00:45:45;11.77;;;1.27;;
71637;SDS011;59485;43.542;-5.676;2023-04-03T00:48:15;10.02;;;0.75;;
71637;SDS011;59485;43.542;-5.676;2023-04-03T00:50:45;11.98;;;1.00;;
71637;SDS011;59485;43.542;-5.676;2023-04-03T00:53:12;9.30;;;1.17;;
71637;SDS011;59485;43.542;-5.676;2023-04-03T00:55:42;8.00;;;0.82;;
71637;SDS011;59485;43.542;-5.676;2023-04-03T00:58:09;11.52;;;1.00;;
71637;SDS011;59485;43.542;-5.676;2023-04-03T01:00:37;9.95;;;0.80;;
71637;SDS011;59485;43.542;-5.676;2023-04-03T01:03:08;8.90;;;1.10;;
71637;SDS011;59485;43.542;-5.676;2023-04-03T01:05:33;11.23;;;0.83;;
71637;SDS011;59485;43.542;-5.676;2023-04-03T01:07:59;9.63;;;0.88;;
71637;SDS011;59485;43.542;-5.676;2023-04-03T01:10:25;7.37;;;0.73;;
71637;SDS011;59485;43.542;-5.676;2023-04-03T01:12:51;8.98;;;1.42;;
71637;SDS011;59485;43.542;-5.676;2023-04-03T01:15:21;7.63;;;0.52;;
71637;SDS011;59485;43.542;-5.676;2023-04-03T01:17:56;10.67;;;1.10;;
71637;SDS011;59485;43.542;-5.676;2023-04-03T01:20:35;14.15;;;1.02;;
71637;SDS011;59485;43.542;-5.676;2023-04-03T01:23:29;10.52;;;1.20;;
71637;SDS011;59485;43.542;-5.676;2023-04-03T01:26:01;8.63;;;1.02;;
71637;SDS011;59485;43.542;-5.676;2023-04-03T01:28:29;7.45;;;0.98;;
71637;SDS011;59485;43.542;-5.676;2023-04-03T01:31:09;7.60;;;1.00;;
71637;SDS011;59485;43.542;-5.676;2023-04-03T01:33:51;11.80;;;1.13;;
71637;SDS011;59485;43.542;-5.676;2023-04-03T01:36:21;7.88;;;0.80;;
71637;SDS011;59485;43.542;-5.676;2023-04-03T01:38:50;7.20;;;1.05;;
71637;SDS011;59485;43.542;-5.676;2023-04-03T01:41:18;7.72;;;1.02;;
71637;SDS011;59485;43.542;-5.676;2023-04-03T01:43:46;10.30;;;1.50;;
71637;SDS011;59485;43.542;-5.676;2023-04-03T01:46:12;8.05;;;0.90;;
71637;SDS011;59485;43.542;-5.676;2023-04-03T01:48:38;10.95;;;1.00;;
71637;SDS011;59485;43.542;-5.676;2023-04-03T01:51:04;15.13;;;1.07;;
71637;SDS011;59485;43.542;-5.676;2023-04-03T01:53:29;10.88;;;1.35;;
71637;SDS011;59485;43.542;-5.676;2023-04-03T01:55:55;13.80;;;1.10;;
71637;SDS011;59485;43.542;-5.676;2023-04-03T01:58:20;8.40;;;0.90;;
71637;SDS011;59485;43.542;-5.676;2023-04-03T02:00:46;10.03;;;1.23;;
71637;SDS011;59485;43.542;-5.676;2023-04-03T02:03:11;9.10;;;1.05;;
71637;SDS011;59485;43.542;-5.676;2023-04-03T02:05:37;8.87;;;0.90;;
71637;SDS011;59485;43.542;-5.676;2023-04-03T02:08:03;13.43;;;1.35;;
71637;SDS011;59485;43.542;-5.676;2023-04-03T02:10:28;6.77;;;0.90;;
71637;SDS011;59485;43.542;-5.676;2023-04-03T02:12:54;7.13;;;1.10;;
71637;SDS011;59485;43.542;-5.676;2023-04-03T02:15:20;9.05;;;1.17;;
71637;SDS011;59485;43.542;-5.676;2023-04-03T02:17:46;12.87;;;2.10;;
71637;SDS011;59485;43.542;-5.676;2023-04-03T02:20:11;9.70;;;1.30;;
71637;SDS011;59485;43.542;-5.676;2023-04-03T02:22:37;9.55;;;0.95;;
71637;SDS011;59485;43.542;-5.676;2023-04-03T02:25:03;10.53;;;1.13;;
71637;SDS011;59485;43.542;-5.676;2023-04-03T02:27:29;9.63;;;1.00;;
71637;SDS011;59485;43.542;-5.676;2023-04-03T02:29:54;8.27;;;0.90;;
71637;SDS011;59485;43.542;-5.676;2023-04-03T02:32:20;7.83;;;0.93;;
71637;SDS011;59485;43.542;-5.676;2023-04-03T02:34:45;12.10;;;1.20;;
71637;SDS011;59485;43.542;-5.676;2023-04-03T02:37:11;13.73;;;1.30;;
71637;SDS011;59485;43.542;-5.676;2023-04-03T02:39:36;8.60;;;1.30;;
71637;SDS011;59485;43.542;-5.676;2023-04-03T02:42:02;7.37;;;0.80;;
71637;SDS011;59485;43.542;-5.676;2023-04-03T02:44:28;13.93;;;1.42;;
71637;SDS011;59485;43.542;-5.676;2023-04-03T02:46:53;7.47;;;1.03;;
71637;SDS011;59485;43.542;-5.676;2023-04-03T02:49:19;8.70;;;1.17;;
71637;SDS011;59485;43.542;-5.676;2023-04-03T02:51:44;6.57;;;0.90;;
71637;SDS011;59485;43.542;-5.676;2023-04-03T02:54:10;13.10;;;1.13;;
71637;SDS011;59485;43.542;-5.676;2023-04-03T02:56:36;9.10;;;0.73;;
71637;SDS011;59485;43.542;-5.676;2023-04-03T02:59:02;11.53;;;1.30;;
71637;SDS011;59485;43.542;-5.676;2023-04-03T03:01:28;15.10;;;1.95;;
71637;SDS011;59485;43.542;-5.676;2023-04-03T03:03:56;5.28;;;0.80;;
71637;SDS011;59485;43.542;-5.676;2023-04-03T03:06:22;9.50;;;1.20;;
71637;SDS011;59485;43.542;-5.676;2023-04-03T03:08:48;7.20;;;1.20;;
71637;SDS011;59485;43.542;-5.676;2023-04-03T03:11:14;8.17;;;0.83;;
71637;SDS011;59485;43.542;-5.676;2023-04-03T03:13:39;9.10;;;0.93;;
71637;SDS011;59485;43.542;-5.676;2023-04-03T03:16:05;10.30;;;1.30;;
71637;SDS011;59485;43.542;-5.676;2023-04-03T03:18:31;14.00;;;0.98;;
71637;SDS011;59485;43.542;-5.676;2023-04-03T03:20:57;7.23;;;1.13;;
71637;SDS011;59485;43.542;-5.676;2023-04-03T03:23:25;11.87;;;1.07;;
71637;SDS011;59485;43.542;-5.676;2023-04-03T03:25:58;10.95;;;1.48;;
71637;SDS011;59485;43.542;-5.676;2023-04-03T03:28:25;8.85;;;1.13;;
71637;SDS011;59485;43.542;-5.676;2023-04-03T03:30:51;16.98;;;3.30;;
71637;SDS011;59485;43.542;-5.676;2023-04-03T03:33:17;7.47;;;1.00;;
71637;SDS011;59485;43.542;-5.676;2023-04-03T03:35:43;11.18;;;1.38;;
71637;SDS011;59485;43.542;-5.676;2023-04-03T03:38:09;11.10;;;1.23;;
71637;SDS011;59485;43.542;-5.676;2023-04-03T03:40:35;13.03;;;1.60;;
71637;SDS011;59485;43.542;-5.676;2023-04-03T03:43:00;11.00;;;1.23;;
71637;SDS011;59485;43.542;-5.676;2023-04-03T03:45:26;9.60;;;0.93;;
71637;SDS011;59485;43.542;-5.676;2023-04-03T03:47:51;7.33;;;0.90;;
71637;SDS011;59485;43.542;-5.676;2023-04-03T03:50:17;10.70;;;1.20;;
71637;SDS011;59485;43.542;-5.676;2023-04-03T03:52:42;10.67;;;1.10;;
71637;SDS011;59485;43.542;-5.676;2023-04-03T03:55:08;11.32;;;1.42;;
71637;SDS011;59485;43.542;-5.676;2023-04-03T03:57:34;6.87;;;0.80;;
71637;SDS011;59485;43.542;-5.676;2023-04-03T03:59:59;14.03;;;1.53;;
71637;SDS011;59485;43.542;-5.676;2023-04-03T04:02:25;10.03;;;1.10;;
71637;SDS011;59485;43.542;-5.676;2023-04-03T04:04:50;10.57;;;0.90;;
71637;SDS011;59485;43.542;-5.676;2023-04-03T04:07:16;8.53;;;1.10;;
71637;SDS011;59485;43.542;-5.676;2023-04-03T04:09:41;4.80;;;0.60;;
71637;SDS011;59485;43.542;-5.676;2023-04-03T04:12:07;11.63;;;1.25;;
71637;SDS011;59485;43.542;-5.676;2023-04-03T04:14:32;8.73;;;1.10;;
71637;SDS011;59485;43.542;-5.676;2023-04-03T04:16:58;13.40;;;1.33;;
71637;SDS011;59485;43.542;-5.676;2023-04-03T04:19:23;9.15;;;1.02;;
71637;SDS011;59485;43.542;-5.676;2023-04-03T04:21:49;13.47;;;1.17;;
71637;SDS011;59485;43.542;-5.676;2023-04-03T04:24:15;10.18;;;1.50;;
71637;SDS011;59485;43.542;-5.676;2023-04-03T04:26:40;10.17;;;1.60;;
71637;SDS011;59485;43.542;-5.676;2023-04-03T04:29:06;8.90;;;1.30;;
71637;SDS011;59485;43.542;-5.676;2023-04-03T04:31:31;12.63;;;1.25;;
71637;SDS011;59485;43.542;-5.676;2023-04-03T04:33:57;9.80;;;1.13;;
71637;SDS011;59485;43.542;-5.676;2023-04-03T04:36:22;13.63;;;1.10;;
71637;SDS011;59485;43.542;-5.676;2023-04-03T04:38:48;8.32;;;1.17;;
71637;SDS011;59485;43.542;-5.676;2023-04-03T04:41:13;7.93;;;1.27;;
71637;SDS011;59485;43.542;-5.676;2023-04-03T04:43:39;10.70;;;1.50;;
71637;SDS011;59485;43.542;-5.676;2023-04-03T04:46:06;12.03;;;1.70;;
71637;SDS011;59485;43.542;-5.676;2023-04-03T04:48:33;8.65;;;1.55;;
71637;SDS011;59485;43.542;-5.676;2023-04-03T04:51:00;9.23;;;1.48;;
71637;SDS011;59485;43.542;-5.676;2023-04-03T04:53:25;16.40;;;1.93;;
71637;SDS011;59485;43.542;-5.676;2023-04-03T04:55:51;11.80;;;2.33;;
71637;SDS011;59485;43.542;-5.676;2023-04-03T04:58:17;12.60;;;2.30;;
71637;SDS011;59485;43.542;-5.676;2023-04-03T05:00:43;10.13;;;2.33;;
71637;SDS011;59485;43.542;-5.676;2023-04-03T05:03:10;13.98;;;2.70;;
71637;SDS011;59485;43.542;-5.676;2023-04-03T05:05:36;12.67;;;2.87;;
71637;SDS011;59485;43.542;-5.676;2023-04-03T05:08:05;14.30;;;3.10;;
71637;SDS011;59485;43.542;-5.676;2023-04-03T05:10:31;13.02;;;2.28;;
71637;SDS011;59485;43.542;-5.676;2023-04-03T05:12:56;8.80;;;3.27;;
71637;SDS011;59485;43.542;-5.676;2023-04-03T05:15:22;16.40;;;3.72;;
71637;SDS011;59485;43.542;-5.676;2023-04-03T05:17:48;16.30;;;4.63;;
71637;SDS011;59485;43.542;-5.676;2023-04-03T05:20:17;16.25;;;5.60;;
71637;SDS011;59485;43.542;-5.676;2023-04-03T05:22:42;22.17;;;7.03;;
71637;SDS011;59485;43.542;-5.676;2023-04-03T05:25:08;20.37;;;8.20;;
71637;SDS011;59485;43.542;-5.676;2023-04-03T05:27:34;23.90;;;12.23;;
71637;SDS011;59485;43.542;-5.676;2023-04-03T05:30:00;29.67;;;14.27;;
71637;SDS011;59485;43.542;-5.676;2023-04-03T05:32:26;23.15;;;11.43;;
71637;SDS011;59485;43.542;-5.676;2023-04-03T05:34:52;23.23;;;10.30;;
71637;SDS011;59485;43.542;-5.676;2023-04-03T05:37:18;28.02;;;13.25;;
71637;SDS011;59485;43.542;-5.676;2023-04-03T05:39:44;22.73;;;13.23;;
71637;SDS011;59485;43.542;-5.676;2023-04-03T05:42:10;34.25;;;16.65;;
71637;SDS011;59485;43.542;-5.676;2023-04-03T05:44:36;29.75;;;19.55;;
71637;SDS011;59485;43.542;-5.676;2023-04-03T05:47:02;30.25;;;20.25;;
71637;SDS011;59485;43.542;-5.676;2023-04-03T05:49:28;34.43;;;18.67;;
71637;SDS011;59485;43.542;-5.676;2023-04-03T05:51:54;33.65;;;18.40;;
71637;SDS011;59485;43.542;-5.676;2023-04-03T05:54:24;29.00;;;15.73;;
71637;SDS011;59485;43.542;-5.676;2023-04-03T05:56:51;21.23;;;8.98;;
71637;SDS011;59485;43.542;-5.676;2023-04-03T05:59:17;23.17;;;6.88;;
71637;SDS011;59485;43.542;-5.676;2023-04-03T06:01:43;18.95;;;7.88;;
71637;SDS011;59485;43.542;-5.676;2023-04-03T06:04:09;18.07;;;8.50;;
71637;SDS011;59485;43.542;-5.676;2023-04-03T06:09:21;20.38;;;8.43;;
71637;SDS011;59485;43.542;-5.676;2023-04-03T06:11:48;20.23;;;8.00;;
71637;SDS011;59485;43.542;-5.676;2023-04-03T06:14:14;22.23;;;8.33;;
71637;SDS011;59485;43.542;-5.676;2023-04-03T06:16:40;17.60;;;7.88;;
71637;SDS011;59485;43.542;-5.676;2023-04-03T06:19:06;18.80;;;10.07;;
71637;SDS011;59485;43.542;-5.676;2023-04-03T06:21:32;24.17;;;7.60;;
71637;SDS011;59485;43.542;-5.676;2023-04-03T06:23:58;17.33;;;4.23;;
71637;SDS011;59485;43.542;-5.676;2023-04-03T06:26:23;14.57;;;5.65;;
71637;SDS011;59485;43.542;-5.676;2023-04-03T06:28:49;25.50;;;8.50;;
71637;SDS011;59485;43.542;-5.676;2023-04-03T06:31:15;29.13;;;9.53;;
71637;SDS011;59485;43.542;-5.676;2023-04-03T06:33:43;22.08;;;6.90;;
71637;SDS011;59485;43.542;-5.676;2023-04-03T06:36:09;20.85;;;9.55;;
71637;SDS011;59485;43.542;-5.676;2023-04-03T06:38:36;30.45;;;13.23;;
71637;SDS011;59485;43.542;-5.676;2023-04-03T06:41:02;24.27;;;11.57;;
71637;SDS011;59485;43.542;-5.676;2023-04-03T06:43:27;22.20;;;10.10;;
71637;SDS011;59485;43.542;-5.676;2023-04-03T06:45:53;19.60;;;9.10;;
71637;SDS011;59485;43.542;-5.676;2023-04-03T06:48:18;20.73;;;8.73;;
71637;SDS011;59485;43.542;-5.676;2023-04-03T06:50:44;20.30;;;6.90;;
71637;SDS011;59485;43.542;-5.676;2023-04-03T06:53:10;13.68;;;5.07;;
71637;SDS011;59485;43.542;-5.676;2023-04-03T06:55:37;17.83;;;4.47;;
71637;SDS011;59485;43.542;-5.676;2023-04-03T06:58:03;11.45;;;3.70;;
71637;SDS011;59485;43.542;-5.676;2023-04-03T07:00:29;16.33;;;3.73;;
71637;SDS011;59485;43.542;-5.676;2023-04-03T07:02:55;14.75;;;3.53;;
71637;SDS011;59485;43.542;-5.676;2023-04-03T07:05:25;14.43;;;3.88;;
71637;SDS011;59485;43.542;-5.676;2023-04-03T07:07:54;13.00;;;4.40;;
71637;SDS011;59485;43.542;-5.676;2023-04-03T07:10:20;14.88;;;4.72;;
71637;SDS011;59485;43.542;-5.676;2023-04-03T07:12:45;14.80;;;4.27;;
71637;SDS011;59485;43.542;-5.676;2023-04-03T07:15:11;22.60;;;4.70;;
71637;SDS011;59485;43.542;-5.676;2023-04-03T07:17:38;13.55;;;4.32;;
71637;SDS011;59485;43.542;-5.676;2023-04-03T07:20:03;14.43;;;4.20;;
71637;SDS011;59485;43.542;-5.676;2023-04-03T07:22:30;16.37;;;3.80;;
71637;SDS011;59485;43.542;-5.676;2023-04-03T07:24:55;17.83;;;3.45;;
71637;SDS011;59485;43.542;-5.676;2023-04-03T07:27:21;9.03;;;3.93;;
71637;SDS011;59485;43.542;-5.676;2023-04-03T07:29:46;13.47;;;3.70;;
71637;SDS011;59485;43.542;-5.676;2023-04-03T07:32:13;15.23;;;4.10;;
71637;SDS011;59485;43.542;-5.676;2023-04-03T07:34:40;13.93;;;4.33;;
71637;SDS011;59485;43.542;-5.676;2023-04-03T07:37:05;19.48;;;4.32;;
71637;SDS011;59485;43.542;-5.676;2023-04-03T07:39:32;20.10;;;6.07;;
71637;SDS011;59485;43.542;-5.676;2023-04-03T07:41:57;19.55;;;5.32;;
71637;SDS011;59485;43.542;-5.676;2023-04-03T07:44:23;20.30;;;5.70;;
71637;SDS011;59485;43.542;-5.676;2023-04-03T07:46:49;19.42;;;6.53;;
71637;SDS011;59485;43.542;-5.676;2023-04-03T07:49:16;17.60;;;5.20;;
71637;SDS011;59485;43.542;-5.676;2023-04-03T07:51:43;18.02;;;4.60;;
71637;SDS011;59485;43.542;-5.676;2023-04-03T07:54:09;17.83;;;4.45;;
71637;SDS011;59485;43.542;-5.676;2023-04-03T07:56:35;14.23;;;3.70;;
71637;SDS011;59485;43.542;-5.676;2023-04-03T07:59:00;15.50;;;4.90;;
71637;SDS011;59485;43.542;-5.676;2023-04-03T08:01:26;15.40;;;4.37;;
71637;SDS011;59485;43.542;-5.676;2023-04-03T08:03:57;13.52;;;2.47;;
71637;SDS011;59485;43.542;-5.676;2023-04-03T08:06:23;11.48;;;2.08;;
71637;SDS011;59485;43.542;-5.676;2023-04-03T08:08:48;6.70;;;1.20;;
71637;SDS011;59485;43.542;-5.676;2023-04-03T08:11:14;9.10;;;2.03;;
71637;SDS011;59485;43.542;-5.676;2023-04-03T08:13:39;6.60;;;1.23;;
71637;SDS011;59485;43.542;-5.676;2023-04-03T08:16:10;10.83;;;1.20;;
71637;SDS011;59485;43.542;-5.676;2023-04-03T08:18:37;11.80;;;1.80;;
71637;SDS011;59485;43.542;-5.676;2023-04-03T08:21:07;10.88;;;2.15;;
71637;SDS011;59485;43.542;-5.676;2023-04-03T08:23:34;12.15;;;1.50;;
71637;SDS011;59485;43.542;-5.676;2023-04-03T08:26:05;7.73;;;1.37;;
71637;SDS011;59485;43.542;-5.676;2023-04-03T08:28:38;7.03;;;1.02;;
71637;SDS011;59485;43.542;-5.676;2023-04-03T08:31:05;7.35;;;1.17;;
71637;SDS011;59485;43.542;-5.676;2023-04-03T08:33:32;9.37;;;1.00;;
71637;SDS011;59485;43.542;-5.676;2023-04-03T08:35:59;9.60;;;1.38;;
71637;SDS011;59485;43.542;-5.676;2023-04-03T08:38:25;9.23;;;1.67;;
71637;SDS011;59485;43.542;-5.676;2023-04-03T08:43:57;9.15;;;0.73;;
71637;SDS011;59485;43.542;-5.676;2023-04-03T08:49:33;10.33;;;0.87;;
71637;SDS011;59485;43.542;-5.676;2023-04-03T08:52:07;9.88;;;0.98;;
71637;SDS011;59485;43.542;-5.676;2023-04-03T08:54:41;10.40;;;1.60;;
71637;SDS011;59485;43.542;-5.676;2023-04-03T08:57:14;11.50;;;1.35;;
71637;SDS011;59485;43.542;-5.676;2023-04-03T08:59:41;6.53;;;0.80;;
71637;SDS011;59485;43.542;-5.676;2023-04-03T09:02:49;8.90;;;1.20;;
71637;SDS011;59485;43.542;-5.676;2023-04-03T09:04:58;6.70;;;0.50;;
71637;SDS011;59485;43.542;-5.676;2023-04-03T09:07:29;7.87;;;0.70;;
71637;SDS011;59485;43.542;-5.676;2023-04-03T09:10:01;6.93;;;0.73;;
71637;SDS011;59485;43.542;-5.676;2023-04-03T09:12:32;5.07;;;0.60;;
71637;SDS011;59485;43.542;-5.676;2023-04-03T09:17:49;6.90;;;1.00;;
71637;SDS011;59485;43.542;-5.676;2023-04-03T09:20:26;13.60;;;1.20;;
71637;SDS011;59485;43.542;-5.676;2023-04-03T09:22:56;8.90;;;0.95;;
71637;SDS011;59485;43.542;-5.676;2023-04-03T09:25:25;7.60;;;0.80;;
71637;SDS011;59485;43.542;-5.676;2023-04-03T09:27:54;8.00;;;0.98;;
71637;SDS011;59485;43.542;-5.676;2023-04-03T09:30:30;9.10;;;1.10;;
71637;SDS011;59485;43.542;-5.676;2023-04-03T09:32:56;7.50;;;1.20;;
71637;SDS011;59485;43.542;-5.676;2023-04-03T09:37:53;16.77;;;1.65;;
71637;SDS011;59485;43.542;-5.676;2023-04-03T09:43:16;11.13;;;1.05;;
71637;SDS011;59485;43.542;-5.676;2023-04-03T09:45:46;9.23;;;1.07;;
71637;SDS011;59485;43.542;-5.676;2023-04-03T09:51:00;13.10;;;1.57;;
71637;SDS011;59485;43.542;-5.676;2023-04-03T09:58:40;9.45;;;1.10;;
71637;SDS011;59485;43.542;-5.676;2023-04-03T10:01:09;10.88;;;1.10;;
71637;SDS011;59485;43.542;-5.676;2023-04-03T10:09:25;8.73;;;1.00;;
71637;SDS011;59485;43.542;-5.676;2023-04-03T10:12:05;5.88;;;0.63;;
71637;SDS011;59485;43.542;-5.676;2023-04-03T10:14:37;9.07;;;1.60;;
71637;SDS011;59485;43.542;-5.676;2023-04-03T10:39:02;11.65;;;1.48;;
71637;SDS011;59485;43.542;-5.676;2023-04-03T10:44:53;9.83;;;0.80;;
71637;SDS011;59485;43.542;-5.676;2023-04-03T10:50:15;14.02;;;1.45;;
71637;SDS011;59485;43.542;-5.676;2023-04-03T10:52:47;11.95;;;1.45;;
71637;SDS011;59485;43.542;-5.676;2023-04-03T10:57:50;5.50;;;0.80;;
71637;SDS011;59485;43.542;-5.676;2023-04-03T11:00:34;11.40;;;1.17;;
71637;SDS011;59485;43.542;-5.676;2023-04-03T11:03:56;13.60;;;1.60;;
71637;SDS011;59485;43.542;-5.676;2023-04-03T11:06:07;20.02;;;1.98;;
71637;SDS011;59485;43.542;-5.676;2023-04-03T11:08:41;16.95;;;1.88;;
71637;SDS011;59485;43.542;-5.676;2023-04-03T11:11:09;14.23;;;2.10;;
71637;SDS011;59485;43.542;-5.676;2023-04-03T11:13:41;21.88;;;1.98;;
71637;SDS011;59485;43.542;-5.676;2023-04-03T11:16:20;24.08;;;2.25;;
71637;SDS011;59485;43.542;-5.676;2023-04-03T11:21:39;17.15;;;1.27;;
71637;SDS011;59485;43.542;-5.676;2023-04-03T11:24:17;19.07;;;2.30;;
71637;SDS011;59485;43.542;-5.676;2023-04-03T11:26:47;34.47;;;7.85;;
71637;SDS011;59485;43.542;-5.676;2023-04-03T11:29:19;23.88;;;5.60;;
71637;SDS011;59485;43.542;-5.676;2023-04-03T11:34:44;21.17;;;3.63;;
71637;SDS011;59485;43.542;-5.676;2023-04-03T11:42:40;33.92;;;4.45;;
71637;SDS011;59485;43.542;-5.676;2023-04-03T11:48:05;12.57;;;3.20;;
71637;SDS011;59485;43.542;-5.676;2023-04-03T11:50:50;18.57;;;4.33;;
71637;SDS011;59485;43.542;-5.676;2023-04-03T11:55:51;17.47;;;3.27;;
71637;SDS011;59485;43.542;-5.676;2023-04-03T11:58:20;22.60;;;4.78;;
71637;SDS011;59485;43.542;-5.676;2023-04-03T12:00:54;27.25;;;4.93;;
71637;SDS011;59485;43.542;-5.676;2023-04-03T12:05:52;20.48;;;3.40;;
71637;SDS011;59485;43.542;-5.676;2023-04-03T12:08:41;29.47;;;3.80;;
71637;SDS011;59485;43.542;-5.676;2023-04-03T12:13:42;37.47;;;9.67;;
71637;SDS011;59485;43.542;-5.676;2023-04-03T12:16:24;20.17;;;4.93;;
71637;SDS011;59485;43.542;-5.676;2023-04-03T12:19:00;28.88;;;3.22;;
71637;SDS011;59485;43.542;-5.676;2023-04-03T12:44:26;15.95;;;1.85;;
71637;SDS011;59485;43.542;-5.676;2023-04-03T12:46:52;12.00;;;1.88;;
71637;SDS011;59485;43.542;-5.676;2023-04-03T12:52:17;31.25;;;3.33;;
71637;SDS011;59485;43.542;-5.676;2023-04-03T12:54:48;31.60;;;2.23;;
71637;SDS011;59485;43.542;-5.676;2023-04-03T12:59:47;17.08;;;2.35;;
71637;SDS011;59485;43.542;-5.676;2023-04-03T13:02:26;18.60;;;2.03;;
71637;SDS011;59485;43.542;-5.676;2023-04-03T13:04:55;17.25;;;2.20;;
71637;SDS011;59485;43.542;-5.676;2023-04-03T13:07:30;22.97;;;2.67;;
71637;SDS011;59485;43.542;-5.676;2023-04-03T13:10:19;15.43;;;1.92;;
71637;SDS011;59485;43.542;-5.676;2023-04-03T13:12:54;35.92;;;3.42;;
71637;SDS011;59485;43.542;-5.676;2023-04-03T13:16:07;47.75;;;2.88;;
71637;SDS011;59485;43.542;-5.676;2023-04-03T13:18:34;20.27;;;2.15;;
71637;SDS011;59485;43.542;-5.676;2023-04-03T13:21:04;13.53;;;2.00;;
71637;SDS011;59485;43.542;-5.676;2023-04-03T13:23:33;11.15;;;1.42;;
71637;SDS011;59485;43.542;-5.676;2023-04-03T13:26:01;12.43;;;2.22;;
71637;SDS011;59485;43.542;-5.676;2023-04-03T13:28:29;19.65;;;4.45;;
71637;SDS011;59485;43.542;-5.676;2023-04-03T13:30:59;19.58;;;3.72;;
71637;SDS011;59485;43.542;-5.676;2023-04-03T13:33:26;13.50;;;4.90;;
71637;SDS011;59485;43.542;-5.676;2023-04-03T13:36:18;52.75;;;4.70;;
71637;SDS011;59485;43.542;-5.676;2023-04-03T13:38:43;21.02;;;2.70;;
71637;SDS011;59485;43.542;-5.676;2023-04-03T13:43:56;22.92;;;2.58;;
71637;SDS011;59485;43.542;-5.676;2023-04-03T13:46:24;18.47;;;3.73;;
71637;SDS011;59485;43.542;-5.676;2023-04-03T13:48:53;16.35;;;1.92;;
71637;SDS011;59485;43.542;-5.676;2023-04-03T13:51:26;14.65;;;2.05;;
71637;SDS011;59485;43.542;-5.676;2023-04-03T13:54:10;18.73;;;1.85;;
71637;SDS011;59485;43.542;-5.676;2023-04-03T13:56:43;13.33;;;2.47;;
71637;SDS011;59485;43.542;-5.676;2023-04-03T14:06:53;17.10;;;4.78;;
71637;SDS011;59485;43.542;-5.676;2023-04-03T14:09:19;34.93;;;3.90;;
71637;SDS011;59485;43.542;-5.676;2023-04-03T14:11:50;12.00;;;2.40;;
71637;SDS011;59485;43.542;-5.676;2023-04-03T14:14:24;34.05;;;4.00;;
71637;SDS011;59485;43.542;-5.676;2023-04-03T14:16:57;16.63;;;1.83;;
71637;SDS011;59485;43.542;-5.676;2023-04-03T14:19:29;15.60;;;2.03;;
71637;SDS011;59485;43.542;-5.676;2023-04-03T14:21:57;11.90;;;1.57;;
71637;SDS011;59485;43.542;-5.676;2023-04-03T14:24:24;23.80;;;2.90;;
71637;SDS011;59485;43.542;-5.676;2023-04-03T14:26:51;34.15;;;2.80;;
71637;SDS011;59485;43.542;-5.676;2023-04-03T14:29:19;20.05;;;1.73;;
71637;SDS011;59485;43.542;-5.676;2023-04-03T14:31:46;13.23;;;1.58;;
71637;SDS011;59485;43.542;-5.676;2023-04-03T14:34:12;9.20;;;1.10;;
71637;SDS011;59485;43.542;-5.676;2023-04-03T14:36:42;17.23;;;1.55;;
71637;SDS011;59485;43.542;-5.676;2023-04-03T14:39:16;10.52;;;0.93;;
71637;SDS011;59485;43.542;-5.676;2023-04-03T14:41:43;11.75;;;1.13;;
71637;SDS011;59485;43.542;-5.676;2023-04-03T14:44:10;20.33;;;2.10;;
71637;SDS011;59485;43.542;-5.676;2023-04-03T14:46:36;22.07;;;2.47;;
71637;SDS011;59485;43.542;-5.676;2023-04-03T14:49:08;11.98;;;1.33;;
71637;SDS011;59485;43.542;-5.676;2023-04-03T14:51:39;16.58;;;1.65;;
71637;SDS011;59485;43.542;-5.676;2023-04-03T14:54:05;17.10;;;2.23;;
71637;SDS011;59485;43.542;-5.676;2023-04-03T14:56:37;22.13;;;1.45;;
71637;SDS011;59485;43.542;-5.676;2023-04-03T14:59:04;16.30;;;1.87;;
71637;SDS011;59485;43.542;-5.676;2023-04-03T15:01:34;15.75;;;1.73;;
71637;SDS011;59485;43.542;-5.676;2023-04-03T15:04:00;11.70;;;1.03;;
71637;SDS011;59485;43.542;-5.676;2023-04-03T15:06:25;17.30;;;2.03;;
71637;SDS011;59485;43.542;-5.676;2023-04-03T15:08:51;17.23;;;1.63;;
71637;SDS011;59485;43.542;-5.676;2023-04-03T15:11:16;17.13;;;0.97;;
71637;SDS011;59485;43.542;-5.676;2023-04-03T15:13:42;17.58;;;2.03;;
71637;SDS011;59485;43.542;-5.676;2023-04-03T15:16:15;23.30;;;2.10;;
71637;SDS011;59485;43.542;-5.676;2023-04-03T15:18:42;11.52;;;1.00;;
71637;SDS011;59485;43.542;-5.676;2023-04-03T15:21:08;12.82;;;1.20;;
71637;SDS011;59485;43.542;-5.676;2023-04-03T15:23:34;11.93;;;1.00;;
71637;SDS011;59485;43.542;-5.676;2023-04-03T15:26:03;14.98;;;1.50;;
71637;SDS011;59485;43.542;-5.676;2023-04-03T15:28:34;16.67;;;1.52;;
71637;SDS011;59485;43.542;-5.676;2023-04-03T15:31:02;19.63;;;1.92;;
71637;SDS011;59485;43.542;-5.676;2023-04-03T15:33:28;16.97;;;1.43;;
71637;SDS011;59485;43.542;-5.676;2023-04-03T15:35:54;13.20;;;0.82;;
71637;SDS011;59485;43.542;-5.676;2023-04-03T15:38:20;20.15;;;1.95;;
71637;SDS011;59485;43.542;-5.676;2023-04-03T15:40:46;34.00;;;2.77;;
71637;SDS011;59485;43.542;-5.676;2023-04-03T15:43:12;17.00;;;1.60;;
71637;SDS011;59485;43.542;-5.676;2023-04-03T15:45:38;21.45;;;2.22;;
71637;SDS011;59485;43.542;-5.676;2023-04-03T15:48:04;20.77;;;1.47;;
71637;SDS011;59485;43.542;-5.676;2023-04-03T15:50:33;20.98;;;2.28;;
71637;SDS011;59485;43.542;-5.676;2023-04-03T15:52:59;14.05;;;1.13;;
71637;SDS011;59485;43.542;-5.676;2023-04-03T15:55:27;14.60;;;1.20;;
71637;SDS011;59485;43.542;-5.676;2023-04-03T15:57:54;11.10;;;1.85;;
71637;SDS011;59485;43.542;-5.676;2023-04-03T16:00:23;25.10;;;2.55;;
71637;SDS011;59485;43.542;-5.676;2023-04-03T16:02:51;26.48;;;1.83;;
71637;SDS011;59485;43.542;-5.676;2023-04-03T16:05:20;12.23;;;1.60;;
71637;SDS011;59485;43.542;-5.676;2023-04-03T16:07:46;10.77;;;1.07;;
71637;SDS011;59485;43.542;-5.676;2023-04-03T16:10:13;14.45;;;1.58;;
71637;SDS011;59485;43.542;-5.676;2023-04-03T16:12:40;11.73;;;1.27;;
71637;SDS011;59485;43.542;-5.676;2023-04-03T16:15:06;10.93;;;1.37;;
71637;SDS011;59485;43.542;-5.676;2023-04-03T16:17:32;10.20;;;1.25;;
71637;SDS011;59485;43.542;-5.676;2023-04-03T16:19:59;8.27;;;1.15;;
71637;SDS011;59485;43.542;-5.676;2023-04-03T16:22:29;12.43;;;1.48;;
71637;SDS011;59485;43.542;-5.676;2023-04-03T16:24:55;9.50;;;1.58;;
71637;SDS011;59485;43.542;-5.676;2023-04-03T16:27:21;17.17;;;1.77;;
71637;SDS011;59485;43.542;-5.676;2023-04-03T16:29:47;8.48;;;1.45;;
71637;SDS011;59485;43.542;-5.676;2023-04-03T16:32:13;9.43;;;1.07;;